This is the latest recevied weather packets stored in our database for station/object KA3WVU. If no packets are shown the sender has not sent any weather packets the latest 10 day(s).
| Time | Temp. | Humidity | Pressure | Rain* | Wind** | Luminosity | Snow |
|---|---|---|---|---|---|---|---|
| 1777931011 | 20° C | 44% | 1007.4 hPa | 0 mm | - | 219 W/m² | - |
| 1777930708 | 19.44° C | 44% | 1007.4 hPa | 0 mm | - | 171 W/m² | - |
| 1777930403 | 19.44° C | 45% | 1007.4 hPa | 0 mm | - | 85 W/m² | - |
| 1777930101 | 18.89° C | 46% | 1007.7 hPa | 0 mm | - | 86 W/m² | - |
| 1777929797 | 19.44° C | 46% | 1007.5 hPa | 0 mm | - | 56 W/m² | - |
| 1777929495 | 20.56° C | 43% | 1007.4 hPa | 0 mm | - | 51 W/m² | - |
| 1777929191 | 20.56° C | 43% | 1007.4 hPa | 0 mm | - | 212 W/m² | - |
| 1777928888 | 21.11° C | 41% | 1007.4 hPa | 0 mm | - | 75 W/m² | - |
| 1777928586 | 20.56° C | 41% | 1007.7 hPa | 0 mm | - | 263 W/m² | - |
| 1777928283 | 19.44° C | 42% | 1007.4 hPa | 0 mm | - | 97 W/m² | - |
| 1777927980 | 20° C | 42% | 1007.3 hPa | 0 mm | - | 273 W/m² | - |
| 1777927678 | 20.56° C | 42% | 1007.4 hPa | 0 mm | - | 66 W/m² | - |
| 1777927376 | 20° C | 42% | 1007.7 hPa | 0 mm | - | 292 W/m² | - |
| 1777927075 | 19.44° C | 42% | 1007.5 hPa | 0 mm | - | 176 W/m² | - |
| 1777926772 | 20° C | 42% | 1007.4 hPa | 0 mm | - | 65 W/m² | - |
| 1777926467 | 20.56° C | 41% | 1007.7 hPa | 0 mm | - | 195 W/m² | - |
| 1777926164 | 20.56° C | 42% | 1007.8 hPa | 0 mm | - | 74 W/m² | - |
| 1777925861 | 20° C | 43% | 1007.8 hPa | 0 mm | - | 290 W/m² | - |
| 1777925558 | 20.56° C | 43% | 1007.8 hPa | 0 mm | - | 291 W/m² | - |
| 1777925256 | 20.56° C | 42% | 1007.9 hPa | 0 mm | - | 344 W/m² | - |
| 1777924951 | 20.56° C | 42% | 1008 hPa | 0 mm | - | 309 W/m² | - |
| 1777924648 | 20° C | 45% | 1007.9 hPa | 0 mm | - | 424 W/m² | - |
| 1777924344 | 19.44° C | 44% | 1008 hPa | 0 mm | - | 472 W/m² | - |
| 1777924041 | 20° C | 42% | 1008 hPa | 0 mm | - | 279 W/m² | - |
| 1777923737 | 21.11° C | 41% | 1008.1 hPa | 0 mm | - | 496 W/m² | - |
* Rain latest hour (hover to see other rain measurements)
** Current wind speed in m/s (hover to see current wind gust speed)